DLH14C EDDN-EDDH
Flight info
| Callsign | DLH14C |
|---|---|
| Flight time | 0h 51m |
| Altitude | 34000 |
| Route | SULUS1G SULUS L604 MASEK/N0435F330 DCT ELNAT/N0437F340 P605 NOLGO NOLGO3P |
| Aircraft | A319/M-SDE3FGHIRWY/LB1 |
Departure
| Time | 2026-04-22 19:02 |
|---|---|
| Airport | Nuremberg Airport (EDDN) |
Arrival
| Time | 2026-04-22 19:53 |
|---|---|
| Airport | Hamburg Helmut Schmidt Airport (EDDH) |
| Time | Latitude | Longitude | Altitude | Speed | Heading |
|---|---|---|---|---|---|
| 2026-04-22 18:31 | 49.49524 | 11.07659 | 1027 ft | 0 kts | 188° |
| 2026-04-22 18:55 | 49.49526 | 11.07660 | 1027 ft | 2 kts | 188° |
| 2026-04-22 18:55 | 49.49551 | 11.07666 | 1028 ft | 4 kts | 191° |
| 2026-04-22 18:56 | 49.49578 | 11.07669 | 1027 ft | 4 kts | 177° |
| 2026-04-22 18:56 | 49.49599 | 11.07666 | 1029 ft | 0 kts | 173° |
| 2026-04-22 18:56 | 49.49598 | 11.07666 | 1029 ft | 0 kts | 173° |
| 2026-04-22 18:58 | 49.49592 | 11.07671 | 1027 ft | 2 kts | 147° |
| 2026-04-22 18:58 | 49.49590 | 11.07707 | 1026 ft | 6 kts | 95° |
| 2026-04-22 18:58 | 49.49583 | 11.07806 | 1030 ft | 12 kts | 98° |
| 2026-04-22 18:58 | 49.49568 | 11.07966 | 1030 ft | 18 kts | 98° |
| 2026-04-22 18:59 | 49.49547 | 11.08162 | 1030 ft | 19 kts | 101° |
| 2026-04-22 18:59 | 49.49556 | 11.08345 | 1032 ft | 17 kts | 31° |
| 2026-04-22 18:59 | 49.49611 | 11.08480 | 1032 ft | 17 kts | 95° |
| 2026-04-22 18:59 | 49.49594 | 11.08654 | 1034 ft | 16 kts | 99° |
| 2026-04-22 19:00 | 49.49577 | 11.08827 | 1036 ft | 16 kts | 98° |
| 2026-04-22 19:00 | 49.49560 | 11.08995 | 1037 ft | 16 kts | 99° |
| 2026-04-22 19:00 | 49.49542 | 11.09169 | 1038 ft | 17 kts | 99° |
| 2026-04-22 19:00 | 49.49530 | 11.09337 | 1042 ft | 15 kts | 80° |
| 2026-04-22 19:01 | 49.49586 | 11.09468 | 1042 ft | 15 kts | 53° |
| 2026-04-22 19:01 | 49.49659 | 11.09565 | 1045 ft | 14 kts | 359° |
| 2026-04-22 19:01 | 49.49710 | 11.09430 | 1043 ft | 25 kts | 280° |
| 2026-04-22 19:01 | 49.49780 | 11.08728 | 1031 ft | 107 kts | 278° |
| 2026-04-22 19:02 | 49.49931 | 11.07274 | 1142 ft | 155 kts | 282° |
| 2026-04-22 19:02 | 49.50119 | 11.05653 | 1875 ft | 154 kts | 282° |
| 2026-04-22 19:02 | 49.50279 | 11.04024 | 2511 ft | 163 kts | 282° |
| 2026-04-22 19:02 | 49.50459 | 11.02155 | 2951 ft | 186 kts | 282° |
| 2026-04-22 19:03 | 49.50660 | 11.00066 | 3386 ft | 209 kts | 281° |
| 2026-04-22 19:03 | 49.50882 | 10.97737 | 3852 ft | 230 kts | 281° |
| 2026-04-22 19:03 | 49.51168 | 10.95244 | 4451 ft | 247 kts | 289° |
| 2026-04-22 19:03 | 49.52167 | 10.93044 | 5135 ft | 260 kts | 327° |
| 2026-04-22 19:04 | 49.53863 | 10.92136 | 6132 ft | 262 kts | 355° |
| 2026-04-22 19:04 | 49.55689 | 10.92026 | 7219 ft | 264 kts | 3° |
| 2026-04-22 19:04 | 49.57536 | 10.92166 | 8256 ft | 267 kts | 6° |
| 2026-04-22 19:04 | 49.59405 | 10.92365 | 9291 ft | 271 kts | 6° |
| 2026-04-22 19:05 | 49.61311 | 10.92545 | 10333 ft | 275 kts | 6° |
| 2026-04-22 19:05 | 49.63252 | 10.92684 | 11074 ft | 289 kts | 5° |
| 2026-04-22 19:05 | 49.65346 | 10.92798 | 11522 ft | 311 kts | 4° |
| 2026-04-22 19:05 | 49.67538 | 10.92884 | 12306 ft | 319 kts | 3° |
| 2026-04-22 19:06 | 49.69785 | 10.92818 | 13206 ft | 325 kts | 355° |
| 2026-04-22 19:06 | 49.71999 | 10.92004 | 14110 ft | 332 kts | 343° |
| 2026-04-22 19:06 | 49.74187 | 10.90784 | 14914 ft | 337 kts | 340° |
| 2026-04-22 19:07 | 49.78456 | 10.87502 | 16456 ft | 347 kts | 335° |
| 2026-04-22 19:07 | 49.80610 | 10.85750 | 17227 ft | 352 kts | 335° |
| 2026-04-22 19:07 | 49.82786 | 10.83969 | 18002 ft | 356 kts | 335° |
| 2026-04-22 19:07 | 49.85002 | 10.82156 | 18748 ft | 360 kts | 336° |
| 2026-04-22 19:08 | 49.87205 | 10.80358 | 19405 ft | 364 kts | 336° |
| 2026-04-22 19:08 | 49.89467 | 10.78520 | 20079 ft | 368 kts | 336° |
| 2026-04-22 19:08 | 49.91002 | 10.77271 | 20531 ft | 371 kts | 336° |
| 2026-04-22 19:08 | 49.93272 | 10.75426 | 21193 ft | 375 kts | 336° |
| 2026-04-22 19:09 | 49.95599 | 10.73540 | 21867 ft | 379 kts | 336° |
| 2026-04-22 19:09 | 49.97954 | 10.71635 | 22511 ft | 383 kts | 336° |
| 2026-04-22 19:09 | 50.00324 | 10.69722 | 23161 ft | 387 kts | 336° |
| 2026-04-22 19:09 | 50.02724 | 10.67779 | 23812 ft | 391 kts | 336° |
| 2026-04-22 19:10 | 50.05145 | 10.65809 | 24349 ft | 395 kts | 336° |
| 2026-04-22 19:10 | 50.07588 | 10.63815 | 24856 ft | 399 kts | 336° |
| 2026-04-22 19:10 | 50.10071 | 10.61784 | 25368 ft | 403 kts | 336° |
| 2026-04-22 19:10 | 50.12571 | 10.59741 | 25869 ft | 407 kts | 336° |
| 2026-04-22 19:11 | 50.15059 | 10.57705 | 26347 ft | 410 kts | 336° |
| 2026-04-22 19:11 | 50.17599 | 10.55621 | 26838 ft | 414 kts | 336° |
| 2026-04-22 19:11 | 50.20165 | 10.53511 | 27288 ft | 419 kts | 336° |
| 2026-04-22 19:11 | 50.22752 | 10.51379 | 27743 ft | 422 kts | 336° |
| 2026-04-22 19:12 | 50.25368 | 10.49220 | 28208 ft | 426 kts | 336° |
| 2026-04-22 19:12 | 50.28010 | 10.47039 | 28677 ft | 430 kts | 336° |
| 2026-04-22 19:12 | 50.30664 | 10.44845 | 29135 ft | 434 kts | 336° |
| 2026-04-22 19:12 | 50.33342 | 10.42632 | 29588 ft | 437 kts | 336° |
| 2026-04-22 19:13 | 50.36022 | 10.40418 | 30028 ft | 441 kts | 336° |
| 2026-04-22 19:13 | 50.38751 | 10.38163 | 30456 ft | 445 kts | 336° |
| 2026-04-22 19:13 | 50.41495 | 10.35892 | 30823 ft | 447 kts | 336° |
| 2026-04-22 19:13 | 50.44257 | 10.33602 | 31158 ft | 451 kts | 336° |
| 2026-04-22 19:14 | 50.47043 | 10.31286 | 31510 ft | 454 kts | 336° |
| 2026-04-22 19:14 | 50.49834 | 10.28957 | 31886 ft | 456 kts | 336° |
| 2026-04-22 19:14 | 50.52638 | 10.26614 | 32258 ft | 458 kts | 336° |
| 2026-04-22 19:14 | 50.55443 | 10.24269 | 32791 ft | 455 kts | 336° |
| 2026-04-22 19:15 | 50.58232 | 10.21937 | 33355 ft | 452 kts | 336° |
| 2026-04-22 19:15 | 50.61002 | 10.19616 | 33913 ft | 450 kts | 336° |
| 2026-04-22 19:15 | 50.63763 | 10.17303 | 34281 ft | 449 kts | 336° |
| 2026-04-22 19:16 | 50.69173 | 10.12754 | 34347 ft | 431 kts | 336° |
| 2026-04-22 19:16 | 50.74425 | 10.08329 | 34348 ft | 426 kts | 336° |
| 2026-04-22 19:17 | 50.79646 | 10.03928 | 34349 ft | 425 kts | 336° |
| 2026-04-22 19:17 | 50.84866 | 9.99513 | 34348 ft | 425 kts | 336° |
| 2026-04-22 19:18 | 50.90080 | 9.95092 | 34348 ft | 425 kts | 336° |
| 2026-04-22 19:18 | 50.95291 | 9.90656 | 34325 ft | 425 kts | 335° |
| 2026-04-22 19:19 | 51.00505 | 9.86205 | 34341 ft | 425 kts | 335° |
| 2026-04-22 19:19 | 51.05717 | 9.81744 | 34337 ft | 425 kts | 335° |
| 2026-04-22 19:20 | 51.10922 | 9.77277 | 34335 ft | 425 kts | 335° |
| 2026-04-22 19:20 | 51.16134 | 9.72809 | 34333 ft | 425 kts | 337° |
| 2026-04-22 19:21 | 51.21680 | 9.70059 | 34320 ft | 415 kts | 357° |
| 2026-04-22 19:21 | 51.27378 | 9.70220 | 34325 ft | 408 kts | 10° |
| 2026-04-22 19:22 | 51.33039 | 9.71185 | 34325 ft | 409 kts | 11° |
| 2026-04-22 19:22 | 51.38670 | 9.72489 | 34331 ft | 409 kts | 13° |
| 2026-04-22 19:23 | 51.44288 | 9.73949 | 34320 ft | 409 kts | 14° |
| 2026-04-22 19:23 | 51.49890 | 9.75372 | 34333 ft | 410 kts | 13° |
| 2026-04-22 19:24 | 51.55541 | 9.76753 | 34338 ft | 411 kts | 13° |
| 2026-04-22 19:24 | 51.61203 | 9.78129 | 34343 ft | 411 kts | 13° |
| 2026-04-22 19:25 | 51.66862 | 9.79518 | 34332 ft | 412 kts | 14° |
| 2026-04-22 19:25 | 51.72534 | 9.80917 | 34338 ft | 412 kts | 14° |
| 2026-04-22 19:26 | 51.78209 | 9.82328 | 34342 ft | 413 kts | 14° |
| 2026-04-22 19:26 | 51.83901 | 9.83740 | 34345 ft | 413 kts | 14° |
| 2026-04-22 19:27 | 51.89601 | 9.85156 | 34325 ft | 414 kts | 15° |
| 2026-04-22 19:27 | 51.95290 | 9.86577 | 34334 ft | 414 kts | 15° |
| 2026-04-22 19:28 | 52.00962 | 9.87998 | 34210 ft | 416 kts | 15° |
| 2026-04-22 19:28 | 52.03818 | 9.88714 | 33931 ft | 416 kts | 15° |
| 2026-04-22 19:28 | 52.06717 | 9.89437 | 33646 ft | 416 kts | 14° |
| 2026-04-22 19:28 | 52.09543 | 9.90141 | 33382 ft | 417 kts | 14° |
| 2026-04-22 19:29 | 52.12418 | 9.90862 | 33100 ft | 417 kts | 15° |
| 2026-04-22 19:29 | 52.15292 | 9.91587 | 32834 ft | 419 kts | 15° |
| 2026-04-22 19:29 | 52.18174 | 9.92316 | 32567 ft | 419 kts | 15° |
| 2026-04-22 19:29 | 52.21057 | 9.93044 | 32305 ft | 419 kts | 15° |
| 2026-04-22 19:30 | 52.22965 | 9.93524 | 32133 ft | 418 kts | 15° |
| 2026-04-22 19:30 | 52.26805 | 9.94496 | 31785 ft | 416 kts | 15° |
| 2026-04-22 19:30 | 52.29670 | 9.95224 | 31530 ft | 415 kts | 15° |
| 2026-04-22 19:30 | 52.32516 | 9.95946 | 31279 ft | 413 kts | 14° |
| 2026-04-22 19:31 | 52.35316 | 9.96654 | 31008 ft | 412 kts | 15° |
| 2026-04-22 19:31 | 52.38142 | 9.97374 | 30760 ft | 411 kts | 15° |
| 2026-04-22 19:31 | 52.40950 | 9.98089 | 30309 ft | 406 kts | 14° |
| 2026-04-22 19:31 | 52.43765 | 9.98800 | 29751 ft | 402 kts | 14° |
| 2026-04-22 19:32 | 52.46510 | 9.99490 | 29253 ft | 397 kts | 14° |
| 2026-04-22 19:32 | 52.49226 | 10.00175 | 28764 ft | 392 kts | 14° |
| 2026-04-22 19:32 | 52.51876 | 10.00853 | 28285 ft | 389 kts | 14° |
| 2026-04-22 19:32 | 52.54536 | 10.01540 | 27800 ft | 385 kts | 14° |
| 2026-04-22 19:33 | 52.57125 | 10.02538 | 27324 ft | 379 kts | 20° |
| 2026-04-22 19:33 | 52.59663 | 10.03682 | 26849 ft | 377 kts | 20° |
| 2026-04-22 19:33 | 52.62186 | 10.04810 | 26397 ft | 374 kts | 19° |
| 2026-04-22 19:33 | 52.64692 | 10.05929 | 25936 ft | 372 kts | 19° |
| 2026-04-22 19:34 | 52.67183 | 10.07045 | 25477 ft | 369 kts | 19° |
| 2026-04-22 19:34 | 52.69662 | 10.08158 | 25012 ft | 367 kts | 18° |
| 2026-04-22 19:34 | 52.72116 | 10.09262 | 24544 ft | 365 kts | 18° |
| 2026-04-22 19:34 | 52.74562 | 10.10363 | 24045 ft | 363 kts | 18° |
| 2026-04-22 19:35 | 52.76982 | 10.11404 | 23509 ft | 363 kts | 13° |
| 2026-04-22 19:35 | 52.79486 | 10.11831 | 23019 ft | 362 kts | 3° |
| 2026-04-22 19:35 | 52.81182 | 10.11879 | 22691 ft | 360 kts | 3° |
| 2026-04-22 19:35 | 52.84480 | 10.11986 | 22044 ft | 356 kts | 3° |
| 2026-04-22 19:36 | 52.86949 | 10.12072 | 21568 ft | 353 kts | 3° |
| 2026-04-22 19:36 | 52.89397 | 10.12157 | 21091 ft | 351 kts | 3° |
| 2026-04-22 19:36 | 52.91840 | 10.12240 | 20615 ft | 349 kts | 3° |
| 2026-04-22 19:36 | 52.94257 | 10.12321 | 20139 ft | 347 kts | 3° |
| 2026-04-22 19:37 | 52.96670 | 10.12402 | 19670 ft | 345 kts | 3° |
| 2026-04-22 19:37 | 52.99064 | 10.12483 | 19207 ft | 344 kts | 3° |
| 2026-04-22 19:37 | 53.01451 | 10.12562 | 18750 ft | 342 kts | 3° |
| 2026-04-22 19:37 | 53.03822 | 10.12637 | 18257 ft | 340 kts | 2° |
| 2026-04-22 19:38 | 53.06149 | 10.12708 | 17811 ft | 337 kts | 2° |
| 2026-04-22 19:38 | 53.08485 | 10.12781 | 17371 ft | 334 kts | 3° |
| 2026-04-22 19:38 | 53.10798 | 10.12854 | 16941 ft | 331 kts | 3° |
| 2026-04-22 19:38 | 53.13109 | 10.12930 | 16501 ft | 328 kts | 3° |
| 2026-04-22 19:39 | 53.15383 | 10.13005 | 16075 ft | 326 kts | 3° |
| 2026-04-22 19:39 | 53.17617 | 10.13077 | 15663 ft | 324 kts | 3° |
| 2026-04-22 19:39 | 53.19861 | 10.13152 | 15367 ft | 319 kts | 3° |
| 2026-04-22 19:39 | 53.22071 | 10.13232 | 15343 ft | 317 kts | 3° |
| 2026-04-22 19:40 | 53.24280 | 10.13312 | 15353 ft | 317 kts | 3° |
| 2026-04-22 19:40 | 53.26482 | 10.13391 | 15354 ft | 317 kts | 3° |
| 2026-04-22 19:40 | 53.28691 | 10.13467 | 15356 ft | 317 kts | 3° |
| 2026-04-22 19:40 | 53.30896 | 10.13542 | 15355 ft | 317 kts | 3° |
| 2026-04-22 19:41 | 53.33107 | 10.13617 | 15350 ft | 317 kts | 3° |
| 2026-04-22 19:41 | 53.35311 | 10.13689 | 15351 ft | 317 kts | 3° |
| 2026-04-22 19:41 | 53.37521 | 10.13759 | 15352 ft | 317 kts | 3° |
| 2026-04-22 19:41 | 53.39731 | 10.13810 | 15352 ft | 318 kts | 0° |
| 2026-04-22 19:42 | 53.41939 | 10.13544 | 15354 ft | 318 kts | 358° |
| 2026-04-22 19:42 | 53.44147 | 10.13260 | 15354 ft | 318 kts | 358° |
| 2026-04-22 19:42 | 53.46357 | 10.12981 | 15074 ft | 319 kts | 358° |
| 2026-04-22 19:42 | 53.48616 | 10.12699 | 14309 ft | 329 kts | 358° |
| 2026-04-22 19:43 | 53.53171 | 10.12123 | 12764 ft | 338 kts | 357° |
| 2026-04-22 19:43 | 53.55562 | 10.11828 | 11581 ft | 351 kts | 358° |
| 2026-04-22 19:43 | 53.58017 | 10.12286 | 10390 ft | 361 kts | 19° |
| 2026-04-22 19:44 | 53.60122 | 10.14463 | 9257 ft | 359 kts | 39° |
| 2026-04-22 19:44 | 53.61895 | 10.17421 | 7930 ft | 357 kts | 47° |
| 2026-04-22 19:44 | 53.63402 | 10.20577 | 7512 ft | 330 kts | 51° |
| 2026-04-22 19:44 | 53.64702 | 10.23540 | 7385 ft | 299 kts | 52° |
| 2026-04-22 19:45 | 53.65885 | 10.26231 | 7265 ft | 275 kts | 51° |
| 2026-04-22 19:45 | 53.67024 | 10.28719 | 7140 ft | 261 kts | 49° |
| 2026-04-22 19:45 | 53.68128 | 10.31052 | 7015 ft | 248 kts | 48° |
| 2026-04-22 19:45 | 53.69191 | 10.33251 | 6881 ft | 237 kts | 47° |
| 2026-04-22 19:46 | 53.70228 | 10.35372 | 6759 ft | 233 kts | 47° |
| 2026-04-22 19:46 | 53.71261 | 10.37470 | 6631 ft | 232 kts | 47° |
| 2026-04-22 19:46 | 53.72292 | 10.39565 | 6500 ft | 232 kts | 47° |
| 2026-04-22 19:46 | 53.73323 | 10.41658 | 6376 ft | 231 kts | 47° |
| 2026-04-22 19:47 | 53.74352 | 10.43744 | 6233 ft | 231 kts | 47° |
| 2026-04-22 19:47 | 53.75520 | 10.45730 | 6111 ft | 250 kts | 31° |
| 2026-04-22 19:47 | 53.76570 | 10.46522 | 5912 ft | 251 kts | 13° |
| 2026-04-22 19:47 | 53.78844 | 10.46151 | 5227 ft | 251 kts | 335° |
| 2026-04-22 19:48 | 53.80258 | 10.44443 | 4756 ft | 251 kts | 314° |
| 2026-04-22 19:48 | 53.81182 | 10.41948 | 4303 ft | 253 kts | 292° |
| 2026-04-22 19:48 | 53.81462 | 10.39021 | 4027 ft | 255 kts | 270° |
| 2026-04-22 19:48 | 53.81053 | 10.36073 | 4016 ft | 262 kts | 248° |
| 2026-04-22 19:49 | 53.80030 | 10.33492 | 4017 ft | 267 kts | 233° |
| 2026-04-22 19:49 | 53.78857 | 10.31098 | 4035 ft | 267 kts | 232° |
| 2026-04-22 19:49 | 53.77660 | 10.28645 | 4034 ft | 267 kts | 233° |
| 2026-04-22 19:49 | 53.76476 | 10.26215 | 3980 ft | 269 kts | 233° |
| 2026-04-22 19:50 | 53.75295 | 10.23794 | 3684 ft | 266 kts | 233° |
| 2026-04-22 19:50 | 53.74121 | 10.21393 | 3345 ft | 263 kts | 233° |
| 2026-04-22 19:50 | 53.72972 | 10.19044 | 2994 ft | 261 kts | 233° |
| 2026-04-22 19:50 | 53.71822 | 10.16697 | 2640 ft | 258 kts | 233° |
| 2026-04-22 19:51 | 53.70679 | 10.14364 | 2292 ft | 258 kts | 233° |
| 2026-04-22 19:51 | 53.69545 | 10.12052 | 1946 ft | 252 kts | 234° |
| 2026-04-22 19:51 | 53.68459 | 10.09846 | 1597 ft | 236 kts | 234° |
| 2026-04-22 19:51 | 53.67443 | 10.07778 | 1324 ft | 222 kts | 234° |
| 2026-04-22 19:52 | 53.66505 | 10.05870 | 1263 ft | 198 kts | 235° |
| 2026-04-22 19:52 | 53.65950 | 10.04712 | 1076 ft | 183 kts | 235° |
| 2026-04-22 19:52 | 53.65188 | 10.03191 | 693 ft | 161 kts | 234° |
| 2026-04-22 19:52 | 53.64517 | 10.01821 | 401 ft | 143 kts | 235° |
| 2026-04-22 19:53 | 53.63916 | 10.00606 | 192 ft | 129 kts | 233° |
| 2026-04-22 19:53 | 53.63386 | 9.99523 | 47 ft | 107 kts | 231° |
| 2026-04-22 19:53 | 53.63036 | 9.98812 | 43 ft | 51 kts | 230° |
| 2026-04-22 19:53 | 53.62832 | 9.98502 | 45 ft | 24 kts | 199° |
| 2026-04-22 19:54 | 53.62743 | 9.98468 | 43 ft | 0 kts | 183° |
| 2026-04-22 19:54 | 53.62723 | 9.98477 | 43 ft | 9 kts | 157° |
| 2026-04-22 19:54 | 53.62713 | 9.98590 | 41 ft | 12 kts | 64° |
| 2026-04-22 19:54 | 53.62774 | 9.98723 | 43 ft | 17 kts | 50° |
| 2026-04-22 19:55 | 53.62857 | 9.98888 | 43 ft | 20 kts | 50° |
| 2026-04-22 19:55 | 53.62951 | 9.99079 | 44 ft | 23 kts | 50° |
| 2026-04-22 19:55 | 53.63043 | 9.99271 | 44 ft | 13 kts | 52° |
| 2026-04-22 19:55 | 53.63088 | 9.99377 | 45 ft | 8 kts | 54° |
| 2026-04-22 19:56 | 53.63128 | 9.99472 | 46 ft | 11 kts | 54° |
| 2026-04-22 19:56 | 53.63189 | 9.99597 | 44 ft | 16 kts | 52° |
| 2026-04-22 19:56 | 53.63240 | 9.99707 | 45 ft | 13 kts | 49° |
| 2026-04-22 19:56 | 53.63312 | 9.99832 | 45 ft | 16 kts | 45° |
| 2026-04-22 19:57 | 53.63394 | 9.99991 | 46 ft | 19 kts | 51° |
| 2026-04-22 19:57 | 53.63405 | 10.00145 | 44 ft | 12 kts | 140° |
| 2026-04-22 19:57 | 53.63373 | 10.00264 | 46 ft | 8 kts | 84° |
| 2026-04-22 19:57 | 53.63373 | 10.00326 | 46 ft | 2 kts | 87° |
| 2026-04-22 19:58 | 53.63374 | 10.00339 | 46 ft | 0 kts | 86° |